Time;durP1;ratioP1;P1;durP2;ratioP2;P2;SDS_P1;SDS_P2;PMS_P1;PMS_P2;Temp;Humidity;BMP_temperature;BMP_pressure;BME280_temperature;BME280_humidity;BME280_pressure;Samples;Min_cycle;Max_cycle;Signal;HPM_P1;HPM_P2
2023/10/03 04:01:20;;;;;;;4.83;3.83;;;17.50;99.90;;;;;;5544058;23;20520;-73
2023/10/03 04:03:50;;;;;;;10.83;4.70;;;17.50;99.90;;;;;;4995323;28;20456;-72
2023/10/03 04:06:19;;;;;;;8.53;3.90;;;17.50;99.90;;;;;;5010031;28;20958;-73
2023/10/03 04:08:48;;;;;;;4.40;1.47;;;17.50;99.90;;;;;;5002553;28;20472;-73
2023/10/03 04:11:34;;;;;;;10.07;4.60;;;17.70;99.90;;;;;;4988249;28;20493;-72
2023/10/03 04:14:05;;;;;;;1.57;1.33;;;17.70;99.90;;;;;;4978074;28;20456;-73
2023/10/03 04:16:39;;;;;;;9.83;4.27;;;17.80;99.90;;;;;;4973193;28;20485;-73
2023/10/03 04:19:09;;;;;;;2.93;1.23;;;17.80;99.90;;;;;;4972009;28;20808;-72
2023/10/03 04:21:40;;;;;;;4.13;2.70;;;17.70;99.90;;;;;;4989805;28;20898;-72
2023/10/03 04:24:10;;;;;;;7.13;2.87;;;17.60;99.90;;;;;;4974475;28;20544;-72
2023/10/03 04:26:40;;;;;;;2.83;2.60;;;17.70;99.90;;;;;;4981134;28;20473;-72
2023/10/03 04:29:11;;;;;;;0.60;0.10;;;17.50;99.90;;;;;;4976036;28;20485;-73
2023/10/03 04:31:40;;;;;;;1.40;0.80;;;17.60;99.90;;;;;;4993939;28;20487;-72
2023/10/03 04:34:11;;;;;;;10.43;3.80;;;17.50;99.90;;;;;;4979192;28;20545;-72
2023/10/03 04:36:41;;;;;;;4.97;2.40;;;17.40;99.90;;;;;;4975492;28;21003;-72
2023/10/03 04:39:09;;;;;;;5.03;3.67;;;17.50;99.90;;;;;;4976337;28;20824;-72
2023/10/03 04:41:43;;;;;;;5.13;3.87;;;17.60;99.90;;;;;;4976171;28;20469;-72
2023/10/03 04:44:14;;;;;;;15.13;6.20;;;17.60;99.90;;;;;;4980012;28;20452;-71
2023/10/03 04:46:45;;;;;;;5.07;2.80;;;17.60;99.90;;;;;;4982227;28;20481;-72
2023/10/03 04:49:13;;;;;;;8.57;5.40;;;17.70;99.90;;;;;;4975973;28;20880;-72
2023/10/03 04:51:45;;;;;;;7.50;3.90;;;17.70;99.90;;;;;;4976446;28;20556;-73
2023/10/03 04:54:13;;;;;;;10.27;5.47;;;17.70;99.90;;;;;;4980136;28;20449;-71
2023/10/03 04:56:41;;;;;;;5.27;1.23;;;17.80;99.90;;;;;;4980460;28;20545;-72
2023/10/03 04:59:09;;;;;;;7.17;3.47;;;17.80;99.90;;;;;;4976462;28;20458;-72
2023/10/03 05:01:37;;;;;;;13.33;5.13;;;18.00;99.90;;;;;;4975504;28;20564;-72
2023/10/03 05:04:06;;;;;;;4.80;1.53;;;;;;;;;;4976166;28;20453;-72
2023/10/03 05:06:35;;;;;;;1.67;1.57;;;18.00;99.90;;;;;;4975985;28;20524;-74
2023/10/03 05:09:04;;;;;;;5.20;4.90;;;18.00;99.90;;;;;;4976828;28;20458;-72
2023/10/03 05:11:32;;;;;;;1.00;0.73;;;18.10;99.90;;;;;;4976237;28;20476;-72
2023/10/03 05:14:01;;;;;;;4.93;3.13;;;18.10;99.90;;;;;;4976776;28;20980;-73
2023/10/03 05:16:29;;;;;;;3.50;3.20;;;18.20;99.90;;;;;;4977130;28;20608;-72
2023/10/03 05:18:57;;;;;;;5.30;4.13;;;18.10;99.90;;;;;;4976843;28;20540;-72
2023/10/03 05:21:26;;;;;;;3.33;2.70;;;18.10;99.90;;;;;;4975668;28;20560;-72
2023/10/03 05:23:54;;;;;;;5.30;4.57;;;18.10;99.90;;;;;;4975032;28;20983;-73
2023/10/03 05:26:25;;;;;;;1.87;0.60;;;18.00;99.90;;;;;;4974950;28;20508;-72
2023/10/03 05:28:55;;;;;;;6.17;2.33;;;18.10;99.90;;;;;;4975940;28;20480;-73
2023/10/03 05:31:23;;;;;;;3.20;2.93;;;18.00;99.90;;;;;;4975237;28;20469;-72
2023/10/03 05:33:51;;;;;;;0.70;0.30;;;18.00;99.90;;;;;;4975341;28;20852;-72
2023/10/03 05:36:20;;;;;;;13.83;5.90;;;18.10;99.90;;;;;;4974062;28;20577;-73
2023/10/03 05:38:49;;;;;;;0.60;0.20;;;18.00;99.90;;;;;;4975245;28;20484;-73
2023/10/03 05:41:21;;;;;;;6.17;3.10;;;18.00;99.90;;;;;;4974031;28;21026;-73
2023/10/03 05:43:49;;;;;;;3.07;2.57;;;18.00;99.90;;;;;;4967391;28;20477;-72
2023/10/03 05:46:17;;;;;;;3.10;1.90;;;18.00;99.90;;;;;;4963072;28;20482;-73
2023/10/03 05:48:45;;;;;;;2.67;1.23;;;17.90;99.90;;;;;;4957742;28;20466;-72
2023/10/03 05:51:13;;;;;;;0.80;0.70;;;17.90;99.90;;;;;;4971127;28;20495;-73
2023/10/03 05:56:11;;;;;;;1.50;1.40;;;18.00;99.90;;;;;;5007255;28;20479;-72
2023/10/03 05:58:39;;;;;;;0.80;0.67;;;18.00;99.90;;;;;;5012978;28;20905;-72
2023/10/03 06:01:07;;;;;;;0.60;0.10;;;18.10;99.90;;;;;;5004010;28;20453;-72
2023/10/03 06:03:36;;;;;;;0.60;0.10;;;18.10;99.90;;;;;;4988234;28;20507;-73
2023/10/03 06:06:04;;;;;;;1.80;1.70;;;18.10;99.90;;;;;;4972401;28;20541;-73
2023/10/03 06:08:33;;;;;;;0.60;0.20;;;18.10;99.90;;;;;;4974289;28;21011;-70
2023/10/03 06:11:03;;;;;;;1.33;1.23;;;;;;;;;;4972776;28;20577;-73
2023/10/03 06:13:32;;;;;;;0.60;0.20;;;18.10;99.90;;;;;;4973989;28;20449;-72
2023/10/03 06:16:00;;;;;;;1.43;1.33;;;18.20;99.90;;;;;;4969298;28;20483;-72
2023/10/03 06:18:28;;;;;;;2.73;1.30;;;18.10;99.90;;;;;;4972553;28;20485;-73
2023/10/03 06:20:57;;;;;;;1.53;1.43;;;18.10;99.90;;;;;;4968230;28;20469;-73
2023/10/03 06:23:26;;;;;;;0.60;0.20;;;18.00;99.90;;;;;;4973467;28;20504;-73
2023/10/03 06:25:54;;;;;;;0.60;0.10;;;;;;;;;;4970507;28;20508;-72
2023/10/03 06:28:22;;;;;;;0.60;0.10;;;18.10;99.90;;;;;;4962964;28;20470;-71
2023/10/03 06:30:53;;;;;;;0.60;0.30;;;18.00;99.90;;;;;;4973720;28;20460;-71
2023/10/03 06:33:21;;;;;;;2.80;1.07;;;18.10;99.90;;;;;;4972835;28;20513;-71
2023/10/03 06:35:50;;;;;;;2.23;2.10;;;18.00;99.90;;;;;;4972872;28;20477;-72
2023/10/03 06:38:19;;;;;;;2.57;2.37;;;18.00;99.90;;;;;;4971955;28;21066;-72
2023/10/03 06:40:47;;;;;;;4.20;3.07;;;17.80;99.90;;;;;;4967060;28;20451;-72
2023/10/03 06:43:14;;;;;;;2.90;2.27;;;17.80;99.90;;;;;;4963063;28;20505;-72
2023/10/03 06:45:42;;;;;;;0.80;0.63;;;17.70;99.90;;;;;;4970779;28;20512;-72
2023/10/03 06:48:11;;;;;;;4.13;3.93;;;17.70;99.90;;;;;;4966506;28;20549;-72
2023/10/03 06:50:40;;;;;;;0.60;0.10;;;17.70;99.90;;;;;;4968137;28;20449;-71
2023/10/03 06:53:09;;;;;;;2.00;1.37;;;17.80;99.90;;;;;;4977781;28;20444;-74
2023/10/03 06:55:37;;;;;;;0.60;0.10;;;17.90;99.90;;;;;;4990322;28;20487;-72
2023/10/03 06:58:05;;;;;;;1.57;1.17;;;17.80;99.90;;;;;;4984104;28;20983;-72
2023/10/03 07:00:33;;;;;;;1.13;1.03;;;17.90;99.90;;;;;;4972721;28;20948;-73
2023/10/03 07:03:01;;;;;;;0.60;0.20;;;18.00;99.90;;;;;;4973326;28;20450;-72
2023/10/03 07:05:30;;;;;;;0.60;0.10;;;17.90;99.90;;;;;;4973443;28;20873;-72
2023/10/03 07:07:58;;;;;;;0.60;0.20;;;18.00;99.90;;;;;;4973128;28;20821;-73
2023/10/03 07:10:26;;;;;;;1.97;1.80;;;18.10;99.90;;;;;;4973697;28;20480;-73
2023/10/03 07:12:54;;;;;;;0.70;0.30;;;;;;;;;;4973896;28;20449;-70
2023/10/03 07:15:22;;;;;;;0.60;0.10;;;18.10;99.90;;;;;;4974380;28;20674;-71
2023/10/03 07:17:50;;;;;;;0.60;0.10;;;18.20;99.90;;;;;;4973788;28;20516;-72
2023/10/03 07:20:18;;;;;;;0.60;0.10;;;18.20;99.90;;;;;;4972759;28;20450;-72
2023/10/03 07:22:47;;;;;;;0.60;0.10;;;18.20;99.90;;;;;;4973197;28;20450;-72
2023/10/03 07:25:16;;;;;;;0.87;0.80;;;18.20;99.90;;;;;;4973162;28;20890;-72
2023/10/03 07:27:45;;;;;;;0.60;0.20;;;18.30;99.90;;;;;;4972309;28;20445;-70
2023/10/03 07:30:15;;;;;;;0.70;0.40;;;18.30;99.90;;;;;;4972823;28;20481;-72
2023/10/03 07:32:43;;;;;;;0.60;0.20;;;18.30;99.90;;;;;;4963344;28;20458;-71
2023/10/03 07:35:13;;;;;;;0.60;0.10;;;18.30;99.90;;;;;;4972984;28;20548;-70
2023/10/03 07:37:41;;;;;;;0.60;0.10;;;18.30;99.90;;;;;;4968641;28;20851;-71
2023/10/03 07:40:11;;;;;;;0.60;0.10;;;18.30;99.90;;;;;;4956500;28;21016;-71
2023/10/03 07:42:39;;;;;;;0.60;0.10;;;18.40;99.90;;;;;;4951438;28;20481;-72
2023/10/03 07:45:09;;;;;;;0.60;0.10;;;18.30;99.90;;;;;;4958775;28;20505;-72
2023/10/03 07:47:39;;;;;;;0.60;0.10;;;18.30;99.90;;;;;;4969877;28;20461;-71
2023/10/03 07:50:10;;;;;;;1.07;0.80;;;18.40;99.90;;;;;;4969081;28;20443;-71
2023/10/03 07:52:38;;;;;;;0.60;0.17;;;18.40;99.90;;;;;;4967188;28;20517;-72
2023/10/03 07:55:07;;;;;;;0.60;0.10;;;18.30;99.90;;;;;;4966468;28;21075;-70
2023/10/03 07:57:37;;;;;;;1.73;1.20;;;18.40;99.90;;;;;;4967658;28;20564;-71
2023/10/03 08:00:07;;;;;;;1.13;1.03;;;18.40;99.90;;;;;;4966103;28;20497;-72
2023/10/03 08:02:35;;;;;;;3.70;3.33;;;18.40;99.90;;;;;;4965313;28;20445;-69
2023/10/03 08:05:04;;;;;;;1.80;1.70;;;18.30;99.90;;;;;;4963965;28;21046;-70
2023/10/03 08:07:32;;;;;;;1.23;1.13;;;;;;;;;;4965363;28;20437;-71
2023/10/03 08:10:03;;;;;;;0.93;0.87;;;18.40;99.90;;;;;;4964294;28;20523;-69
2023/10/03 08:12:37;;;;;;;3.47;2.10;;;18.50;99.90;;;;;;4962867;28;20451;-70
2023/10/03 08:15:17;;;;;;;0.60;0.10;;;18.60;99.90;;;;;;4957230;28;21177;-71
2023/10/03 08:17:48;;;;;;;0.60;0.20;;;18.70;99.90;;;;;;4963430;28;20488;-71
2023/10/03 08:20:18;;;;;;;0.60;0.20;;;18.80;99.90;;;;;;4961196;28;20461;-70
2023/10/03 08:22:50;;;;;;;0.60;0.10;;;18.80;99.90;;;;;;4971098;28;20557;-70
2023/10/03 08:25:20;;;;;;;2.87;2.63;;;18.90;99.90;;;;;;4967766;28;20480;-70
2023/10/03 08:27:49;;;;;;;2.10;1.90;;;19.00;99.90;;;;;;4967308;28;20521;-70
2023/10/03 08:30:29;;;;;;;0.60;0.30;;;19.00;99.90;;;;;;4968800;28;20453;-69
2023/10/03 08:33:00;;;;;;;0.60;0.10;;;19.10;99.90;;;;;;4966115;28;20469;-71
2023/10/03 08:35:38;;;;;;;0.60;0.40;;;19.20;99.90;;;;;;4969270;28;20528;-72
2023/10/03 08:38:08;;;;;;;0.60;0.20;;;19.20;99.90;;;;;;4969551;28;20900;-72
2023/10/03 08:40:40;;;;;;;0.63;0.27;;;19.20;99.90;;;;;;4967365;28;20505;-71
2023/10/03 08:43:10;;;;;;;0.60;0.20;;;19.30;99.90;;;;;;4953221;28;20879;-71
2023/10/03 08:45:42;;;;;;;0.60;0.10;;;19.40;99.90;;;;;;4967331;28;20493;-72
2023/10/03 08:48:11;;;;;;;0.60;0.10;;;19.40;99.90;;;;;;4957736;28;20817;-74
2023/10/03 08:50:46;;;;;;;0.60;0.10;;;19.40;99.90;;;;;;4967382;28;20446;-73
2023/10/03 08:53:16;;;;;;;3.30;3.03;;;19.50;99.90;;;;;;4963985;28;21013;-72
2023/10/03 08:55:49;;;;;;;0.70;0.30;;;19.50;99.90;;;;;;4977664;28;20638;-72
2023/10/03 08:58:19;;;;;;;4.93;0.30;;;19.50;99.90;;;;;;4970692;28;20492;-73
2023/10/03 09:00:49;;;;;;;0.60;0.20;;;19.60;99.90;;;;;;4963719;28;20872;-73
2023/10/03 09:03:19;;;;;;;1.20;1.10;;;19.60;99.90;;;;;;4969929;28;20548;-72
2023/10/03 09:05:48;;;;;;;0.97;0.80;;;19.70;99.90;;;;;;4959716;28;20498;-73
2023/10/03 09:08:17;;;;;;;1.97;1.23;;;19.70;99.90;;;;;;4969301;28;20567;-73
2023/10/03 09:10:52;;;;;;;1.20;0.40;;;19.70;99.90;;;;;;4970556;28;20782;-72
2023/10/03 09:13:25;;;;;;;2.00;1.90;;;19.80;99.90;;;;;;4975019;28;20540;-72
2023/10/03 09:16:00;;;;;;;2.53;1.03;;;19.90;99.90;;;;;;4967675;28;20865;-72
2023/10/03 09:18:31;;;;;;;0.70;0.20;;;19.70;99.90;;;;;;4971285;28;20485;-72
2023/10/03 09:21:00;;;;;;;9.03;4.10;;;20.00;99.90;;;;;;4971396;28;20541;-72
2023/10/03 09:23:38;;;;;;;3.93;3.33;;;20.10;99.90;;;;;;4974680;28;20445;-71
2023/10/03 09:26:07;;;;;;;3.80;1.90;;;20.10;99.90;;;;;;4971911;28;20454;-72
2023/10/03 09:28:40;;;;;;;16.33;4.10;;;20.10;99.90;;;;;;4974067;28;20457;-72
2023/10/03 09:31:09;;;;;;;0.70;0.40;;;20.20;99.90;;;;;;4974510;28;20450;-73
2023/10/03 09:33:39;;;;;;;2.70;1.20;;;20.40;99.90;;;;;;4974278;28;20450;-72
2023/10/03 09:36:08;;;;;;;0.70;0.20;;;21.60;99.90;;;;;;4970004;28;20818;-71
2023/10/03 09:38:44;;;;;;;0.70;0.30;;;20.50;99.90;;;;;;4974242;28;20493;-71
2023/10/03 09:41:21;;;;;;;1.20;0.80;;;20.50;99.90;;;;;;4974645;28;20476;-70
2023/10/03 09:43:53;;;;;;;4.23;2.30;;;20.70;99.90;;;;;;4982442;28;20527;-72
2023/10/03 09:46:38;;;;;;;3.43;2.40;;;20.70;99.90;;;;;;4974621;28;20484;-72
2023/10/03 09:49:10;;;;;;;5.03;1.80;;;20.70;99.90;;;;;;4975019;28;20438;-71
2023/10/03 09:51:47;;;;;;;1.20;1.10;;;20.80;99.90;;;;;;4968575;28;20533;-72
2023/10/03 09:54:23;;;;;;;3.20;1.97;;;20.90;99.90;;;;;;4968233;28;20526;-71
2023/10/03 09:56:55;;;;;;;0.93;0.50;;;20.90;99.90;;;;;;4966354;28;20494;-72
2023/10/03 09:59:24;;;;;;;1.07;0.50;;;21.00;99.90;;;;;;4969413;28;20486;-70
2023/10/03 10:01:56;;;;;;;0.90;0.63;;;21.00;99.90;;;;;;4970970;28;20489;-70
2023/10/03 10:04:27;;;;;;;5.53;1.97;;;21.20;99.90;;;;;;4971527;28;20502;-71
2023/10/03 10:07:14;;;;;;;2.63;1.70;;;21.20;99.90;;;;;;4962582;28;20446;-71
2023/10/03 10:09:52;;;;;;;4.13;2.70;;;21.20;99.90;;;;;;4982919;28;20822;-72
2023/10/03 10:12:21;;;;;;;2.93;1.17;;;21.20;99.90;;;;;;4990154;28;20778;-72
2023/10/03 10:15:17;;;;;;;7.10;4.20;;;21.30;99.90;;;;;;4989654;28;20475;-70
2023/10/03 10:17:51;;;;;;;1.53;1.40;;;21.30;99.90;;;;;;4972819;28;20949;-72
2023/10/03 10:20:27;;;;;;;2.97;0.83;;;21.40;99.90;;;;;;4977424;28;20491;-71
2023/10/03 10:23:15;;;;;;;5.50;2.60;;;21.50;99.90;;;;;;4970537;28;21007;-72
2023/10/03 10:25:56;;;;;;;2.00;1.17;;;21.50;99.90;;;;;;4974517;28;20484;-71
2023/10/03 10:28:31;;;;;;;1.10;1.03;;;21.50;99.90;;;;;;4976935;28;20930;-71
2023/10/03 10:31:21;;;;;;;1.07;0.50;;;21.50;99.90;;;;;;4978710;28;20443;-73
2023/10/03 10:34:32;;;;;;;2.13;1.20;;;21.50;99.90;;;;;;4973340;28;20510;-71
2023/10/03 10:37:05;;;;;;;1.23;1.13;;;21.50;99.90;;;;;;4965218;28;20514;-71
2023/10/03 10:42:58;;;;;;;2.83;0.40;;;21.50;99.90;;;;;;4968126;28;20465;-72
2023/10/03 10:45:27;;;;;;;0.70;0.33;;;21.50;99.90;;;;;;4973683;28;20470;-74
2023/10/03 10:47:56;;;;;;;0.87;0.80;;;21.50;99.90;;;;;;4952946;28;20866;-74
2023/10/03 10:50:27;;;;;;;23.93;3.37;;;21.40;99.90;;;;;;4967998;28;20443;-71
2023/10/03 10:52:56;;;;;;;0.60;0.10;;;21.50;99.90;;;;;;4966401;28;20454;-71
2023/10/03 10:55:25;;;;;;;3.23;1.10;;;21.60;99.90;;;;;;4964084;28;20555;-71
2023/10/03 10:58:08;;;;;;;0.70;0.30;;;21.70;99.90;;;;;;4955275;28;20446;-74
2023/10/03 11:00:36;;;;;;;0.67;0.17;;;21.80;99.90;;;;;;4951157;28;20483;-73
2023/10/03 11:03:06;;;;;;;1.37;1.27;;;21.80;99.90;;;;;;4957005;28;20482;-71
2023/10/03 11:05:44;;;;;;;2.20;2.03;;;21.80;99.90;;;;;;4958943;28;20463;-71
2023/10/03 11:08:13;;;;;;;0.60;0.10;;;21.80;99.90;;;;;;4958106;28;20453;-72
2023/10/03 11:10:52;;;;;;;0.60;0.20;;;21.80;99.90;;;;;;4963795;28;20871;-72
2023/10/03 11:13:20;;;;;;;0.80;0.50;;;21.80;99.90;;;;;;4958690;28;20483;-74
2023/10/03 11:15:48;;;;;;;0.60;0.30;;;21.90;99.90;;;;;;4957318;28;20503;-72
2023/10/03 11:18:16;;;;;;;0.60;0.10;;;21.90;99.90;;;;;;4968676;28;20449;-72
2023/10/03 11:20:47;;;;;;;0.90;0.40;;;22.00;99.90;;;;;;4967501;28;20486;-73
2023/10/03 11:23:18;;;;;;;0.60;0.20;;;22.00;99.90;;;;;;4972629;28;20538;-72
2023/10/03 11:25:55;;;;;;;0.60;0.10;;;21.90;99.90;;;;;;4973149;28;20561;-72
2023/10/03 11:28:23;;;;;;;0.60;0.10;;;21.90;99.90;;;;;;4972710;28;20973;-72
2023/10/03 11:31:04;;;;;;;0.60;0.10;;;22.00;99.90;;;;;;4971971;28;20459;-72
2023/10/03 11:33:43;;;;;;;0.60;0.20;;;22.00;99.90;;;;;;4965983;28;20970;-71
2023/10/03 11:36:14;;;;;;;0.60;0.10;;;22.00;99.90;;;;;;4968168;28;20534;-72
2023/10/03 11:38:46;;;;;;;0.60;0.10;;;22.10;99.90;;;;;;4967173;28;20528;-73
2023/10/03 11:41:14;;;;;;;0.70;0.30;;;22.10;99.90;;;;;;4971065;28;20487;-72
2023/10/03 11:43:46;;;;;;;0.80;0.63;;;22.20;99.90;;;;;;4975904;28;20804;-72
2023/10/03 11:46:15;;;;;;;1.00;0.50;;;22.20;99.90;;;;;;4970798;28;20464;-72
2023/10/03 11:48:44;;;;;;;0.70;0.50;;;22.40;99.90;;;;;;4972548;28;20535;-73
2023/10/03 11:51:14;;;;;;;0.70;0.47;;;22.40;99.90;;;;;;4965834;28;20451;-71
2023/10/03 11:53:41;;;;;;;2.20;1.80;;;22.50;99.90;;;;;;4969268;28;20993;-72
2023/10/03 11:56:09;;;;;;;1.20;0.40;;;22.50;99.90;;;;;;4971216;28;20445;-71
2023/10/03 11:58:37;;;;;;;2.60;1.13;;;22.40;99.90;;;;;;4960499;28;20458;-72
2023/10/03 12:01:05;;;;;;;1.03;0.70;;;22.50;99.90;;;;;;4964232;28;20496;-72
2023/10/03 12:03:33;;;;;;;1.13;1.03;;;22.50;99.90;;;;;;4970672;28;20447;-72
2023/10/03 12:06:01;;;;;;;1.13;1.00;;;22.50;99.90;;;;;;4971591;28;20446;-72
2023/10/03 12:08:32;;;;;;;0.83;0.50;;;22.60;99.90;;;;;;4970738;28;20463;-73
2023/10/03 12:11:00;;;;;;;2.90;1.97;;;22.60;99.90;;;;;;4970282;28;20444;-71
2023/10/03 12:13:28;;;;;;;0.90;0.40;;;22.60;99.90;;;;;;4957190;28;20549;-71
2023/10/03 12:15:56;;;;;;;0.70;0.50;;;22.60;99.90;;;;;;4975796;28;20537;-72
2023/10/03 12:18:26;;;;;;;0.60;0.10;;;22.60;99.90;;;;;;4975517;28;20536;-72
2023/10/03 12:20:55;;;;;;;0.80;0.50;;;22.70;99.90;;;;;;4970188;28;20497;-71
2023/10/03 12:23:23;;;;;;;2.40;1.40;;;22.80;99.90;;;;;;4979401;28;20443;-70
2023/10/03 12:25:52;;;;;;;0.60;0.20;;;22.60;99.90;;;;;;4973761;28;20479;-72
2023/10/03 12:28:21;;;;;;;1.03;0.93;;;22.70;99.90;;;;;;4973808;28;20468;-71
2023/10/03 12:30:51;;;;;;;0.70;0.33;;;22.70;99.90;;;;;;4968275;28;20458;-71
2023/10/03 12:33:19;;;;;;;0.70;0.30;;;22.70;99.90;;;;;;4974546;28;20479;-71
2023/10/03 12:35:47;;;;;;;0.60;0.20;;;22.80;99.90;;;;;;4971141;28;20567;-73
2023/10/03 12:38:16;;;;;;;0.90;0.67;;;22.70;99.90;;;;;;4970529;28;20954;-78
2023/10/03 12:40:44;;;;;;;1.07;0.63;;;22.70;99.90;;;;;;4965087;28;21078;-72
2023/10/03 12:43:13;;;;;;;2.30;2.10;;;22.80;99.90;;;;;;4967503;28;20510;-71
2023/10/03 12:45:41;;;;;;;0.80;0.53;;;22.40;99.90;;;;;;4972737;28;20474;-72
2023/10/03 12:48:10;;;;;;;0.70;0.20;;;21.90;99.90;;;;;;4975130;28;20461;-73
2023/10/03 12:50:39;;;;;;;0.60;0.10;;;21.60;99.90;;;;;;4969784;28;20536;-74
2023/10/03 12:53:10;;;;;;;0.60;0.20;;;21.20;99.90;;;;;;4969812;28;20459;-74
2023/10/03 12:55:39;;;;;;;0.80;0.50;;;21.00;99.90;;;;;;4974216;28;20529;-74
2023/10/03 12:58:06;;;;;;;5.00;1.10;;;20.90;99.90;;;;;;4971671;28;20520;-74
2023/10/03 13:00:36;;;;;;;0.60;0.20;;;20.70;99.90;;;;;;4975524;28;21068;-75
2023/10/03 13:03:05;;;;;;;0.70;0.17;;;;;;;;;;4968928;28;20979;-73
2023/10/03 13:05:35;;;;;;;1.27;0.60;;;20.40;99.90;;;;;;4968109;28;20832;-74
2023/10/03 13:08:04;;;;;;;0.80;0.63;;;20.20;99.90;;;;;;4968169;28;20451;-74
2023/10/03 13:10:34;;;;;;;0.77;0.77;;;20.00;99.90;;;;;;4976837;28;20481;-74
2023/10/03 13:13:04;;;;;;;0.60;0.20;;;20.00;99.90;;;;;;4976755;28;20454;-73
2023/10/03 13:15:33;;;;;;;0.60;0.10;;;19.90;99.90;;;;;;4966646;28;20505;-75
2023/10/03 13:18:02;;;;;;;0.60;0.20;;;19.90;99.90;;;;;;4964400;28;20540;-73
2023/10/03 13:20:30;;;;;;;0.60;0.10;;;19.90;99.90;;;;;;4975418;28;20552;-73
2023/10/03 13:22:58;;;;;;;0.60;0.20;;;19.90;99.90;;;;;;4975762;28;20494;-74
2023/10/03 13:25:26;;;;;;;0.60;0.10;;;19.80;99.90;;;;;;4976507;28;20465;-73
2023/10/03 13:27:54;;;;;;;0.60;0.20;;;19.80;99.90;;;;;;4973823;28;20917;-73
2023/10/03 13:30:26;;;;;;;0.60;0.10;;;19.70;99.90;;;;;;4976345;28;20456;-72
2023/10/03 13:32:55;;;;;;;1.67;1.30;;;19.60;99.90;;;;;;4968739;28;20975;-73
2023/10/03 13:35:25;;;;;;;0.70;0.40;;;19.50;99.90;;;;;;4979396;28;20466;-72
2023/10/03 13:37:54;;;;;;;1.13;0.63;;;19.50;99.90;;;;;;4975888;28;20485;-73
2023/10/03 13:40:23;;;;;;;0.60;0.10;;;19.30;99.90;;;;;;4970782;28;20471;-72
2023/10/03 13:42:51;;;;;;;1.27;0.40;;;19.40;99.90;;;;;;4975195;28;20933;-73
2023/10/03 13:45:19;;;;;;;0.60;0.10;;;19.30;99.90;;;;;;4971333;28;20524;-72
2023/10/03 13:47:49;;;;;;;0.60;0.10;;;19.30;99.90;;;;;;4975523;28;20451;-71
2023/10/03 13:50:18;;;;;;;0.60;0.10;;;19.30;99.90;;;;;;4975859;28;20548;-71
2023/10/03 13:52:48;;;;;;;0.60;0.20;;;19.30;99.90;;;;;;4975446;28;20447;-72
2023/10/03 13:55:18;;;;;;;0.60;0.20;;;19.30;99.90;;;;;;4971554;28;20828;-72
2023/10/03 13:57:46;;;;;;;0.80;0.50;;;19.30;99.90;;;;;;4973684;28;20452;-71
2023/10/03 14:00:15;;;;;;;0.70;0.43;;;19.30;99.90;;;;;;4974316;28;20456;-71
2023/10/03 14:02:45;;;;;;;0.77;0.27;;;19.30;99.90;;;;;;4967195;28;20478;-73
2023/10/03 14:05:19;;;;;;;1.37;0.63;;;19.20;99.90;;;;;;4969537;28;20564;-72
2023/10/03 14:07:48;;;;;;;0.90;0.90;;;19.10;99.90;;;;;;4971813;28;20450;-73
2023/10/03 14:10:18;;;;;;;0.80;0.60;;;19.10;99.90;;;;;;4974926;28;20457;-72
2023/10/03 14:12:46;;;;;;;0.60;0.20;;;19.10;99.90;;;;;;4967394;28;21507;-71
2023/10/03 14:15:20;;;;;;;1.43;1.33;;;19.20;99.90;;;;;;4957770;28;20537;-73
2023/10/03 14:17:49;;;;;;;0.60;0.10;;;19.20;99.90;;;;;;4973415;28;20528;-73
2023/10/03 14:20:23;;;;;;;0.60;0.10;;;;;;;;;;4968362;28;20971;-73
2023/10/03 14:22:54;;;;;;;1.67;1.03;;;19.30;99.90;;;;;;4983005;28;20571;-73
2023/10/03 14:25:22;;;;;;;0.60;0.10;;;19.30;99.90;;;;;;4973359;28;20505;-73
2023/10/03 14:27:50;;;;;;;0.60;0.10;;;19.20;1.00;;;;;;4967618;28;20453;-73
2023/10/03 14:30:18;;;;;;;0.93;0.70;;;19.20;99.90;;;;;;4975305;28;20537;-74
2023/10/03 14:32:46;;;;;;;0.60;0.10;;;19.10;99.90;;;;;;4975307;28;20450;-74
2023/10/03 14:35:14;;;;;;;0.60;0.20;;;19.10;1.00;;;;;;4973224;28;20469;-74
2023/10/03 14:37:42;;;;;;;0.60;0.10;;;19.10;1.00;;;;;;4966262;28;20473;-74
2023/10/03 14:40:15;;;;;;;0.60;0.20;;;19.00;1.00;;;;;;4969499;28;20453;-74
2023/10/03 14:42:44;;;;;;;1.13;1.03;;;19.00;1.00;;;;;;4975726;28;20482;-75
2023/10/03 14:45:14;;;;;;;0.60;0.10;;;;;;;;;;4973251;28;20540;-75
2023/10/03 14:47:45;;;;;;;1.53;1.43;;;19.10;1.00;;;;;;4980398;28;20442;-75
2023/10/03 14:50:13;;;;;;;0.60;0.10;;;19.00;1.00;;;;;;4974616;28;20454;-74
2023/10/03 14:52:41;;;;;;;0.60;0.20;;;19.00;1.00;;;;;;4979265;28;20456;-73
2023/10/03 14:55:12;;;;;;;0.60;0.10;;;18.80;99.90;;;;;;4977914;28;20568;-75
2023/10/03 14:57:41;;;;;;;0.60;0.10;;;18.80;99.90;;;;;;4973843;28;20453;-74
2023/10/03 15:00:10;;;;;;;0.60;0.13;;;18.80;99.90;;;;;;4962338;28;20520;-74
2023/10/03 15:02:38;;;;;;;0.60;0.10;;;18.70;99.90;;;;;;4973380;28;20481;-74
2023/10/03 15:05:10;;;;;;;0.60;0.10;;;18.80;99.90;;;;;;4967233;28;20995;-75
2023/10/03 15:07:38;;;;;;;0.60;0.10;;;18.70;99.90;;;;;;4973399;28;20480;-74
2023/10/03 15:10:07;;;;;;;0.60;0.20;;;18.60;99.90;;;;;;4971568;28;21011;-76
2023/10/03 15:12:35;;;;;;;0.60;0.10;;;18.50;99.90;;;;;;4973987;28;20460;-75
2023/10/03 15:15:05;;;;;;;0.60;0.10;;;18.40;99.90;;;;;;4973334;28;20477;-74
2023/10/03 15:17:35;;;;;;;0.60;0.10;;;18.40;99.90;;;;;;4962775;28;20544;-75
2023/10/03 15:20:05;;;;;;;0.60;0.10;;;18.30;99.90;;;;;;4975882;28;20833;-73
2023/10/03 15:22:33;;;;;;;0.60;0.20;;;18.20;99.90;;;;;;4967422;28;21667;-73
2023/10/03 15:25:01;;;;;;;0.60;0.17;;;18.10;99.90;;;;;;4972919;28;20529;-73
2023/10/03 15:27:29;;;;;;;0.60;0.10;;;18.10;99.90;;;;;;4972986;28;20481;-74
2023/10/03 15:29:59;;;;;;;0.60;0.10;;;18.10;99.90;;;;;;4966819;28;20488;-74
2023/10/03 15:32:28;;;;;;;0.70;0.20;;;;;;;;;;4967747;28;20506;-73
2023/10/03 15:35:00;;;;;;;0.80;0.50;;;18.00;99.90;;;;;;4972475;28;20481;-73
2023/10/03 15:37:28;;;;;;;0.60;0.10;;;18.00;99.90;;;;;;4966442;28;20453;-74
2023/10/03 15:39:56;;;;;;;0.80;0.50;;;17.90;99.90;;;;;;4971822;28;20457;-74
2023/10/03 15:42:24;;;;;;;0.60;0.10;;;17.90;99.90;;;;;;4972743;28;21013;-73
2023/10/03 15:44:55;;;;;;;0.67;0.17;;;17.90;99.90;;;;;;4959595;28;20485;-75
2023/10/03 15:47:40;;;;;;;0.60;0.10;;;;;;;;;;4972450;28;20453;-74
2023/10/03 15:50:10;;;;;;;0.60;0.13;;;17.90;99.90;;;;;;4968003;28;20445;-72
2023/10/03 15:52:42;;;;;;;0.60;0.20;;;17.80;99.90;;;;;;4966959;28;20439;-73
2023/10/03 15:55:11;;;;;;;0.60;0.20;;;17.70;99.90;;;;;;4964794;28;20469;-73
2023/10/03 15:57:39;;;;;;;0.60;0.20;;;17.70;99.90;;;;;;4969110;28;20446;-74
2023/10/03 16:00:11;;;;;;;0.60;0.10;;;17.70;99.90;;;;;;4966641;28;20887;-72
2023/10/03 16:02:40;;;;;;;0.60;0.10;;;17.70;99.90;;;;;;4970663;28;20520;-73
2023/10/03 16:05:10;;;;;;;0.60;0.10;;;17.70;99.90;;;;;;4965001;28;20485;-73
2023/10/03 16:07:38;;;;;;;0.60;0.13;;;17.70;99.90;;;;;;4971392;28;20508;-73
2023/10/03 16:10:07;;;;;;;0.60;0.10;;;17.70;99.90;;;;;;4967552;28;20485;-73
2023/10/03 16:12:36;;;;;;;0.60;0.10;;;17.70;99.90;;;;;;4971967;28;20564;-72
2023/10/03 16:15:04;;;;;;;0.60;0.10;;;17.70;99.90;;;;;;4971961;28;21073;-73
2023/10/03 16:17:32;;;;;;;0.60;0.10;;;17.70;99.90;;;;;;4957333;28;20497;-75
2023/10/03 16:20:06;;;;;;;0.60;0.10;;;17.80;99.90;;;;;;4967669;28;20445;-74
2023/10/03 16:22:34;;;;;;;0.60;0.10;;;17.80;99.90;;;;;;4972587;28;20540;-74
2023/10/03 16:25:05;;;;;;;0.60;0.10;;;17.90;99.90;;;;;;4972656;28;20980;-72
2023/10/03 16:27:33;;;;;;;0.60;0.20;;;15.70;99.90;;;;;;4969746;28;20537;-72
2023/10/03 16:30:05;;;;;;;0.60;0.10;;;17.90;99.90;;;;;;4972068;28;20462;-72
2023/10/03 16:32:34;;;;;;;0.60;0.20;;;17.90;99.90;;;;;;4972932;28;20939;-72
2023/10/03 16:35:07;;;;;;;0.60;0.10;;;17.90;99.90;;;;;;4972308;28;20476;-72
2023/10/03 16:37:35;;;;;;;0.60;0.10;;;17.80;99.90;;;;;;4972550;28;20446;-72
2023/10/03 16:40:03;;;;;;;1.43;0.70;;;17.70;99.90;;;;;;4968790;28;20981;-73
2023/10/03 16:42:31;;;;;;;0.60;0.10;;;17.70;99.90;;;;;;4970944;28;20489;-73
2023/10/03 16:45:00;;;;;;;0.60;0.10;;;17.60;99.90;;;;;;4976956;28;20497;-74
2023/10/03 16:47:28;;;;;;;0.60;0.10;;;17.60;99.90;;;;;;4986590;28;20529;-74
2023/10/03 16:49:56;;;;;;;0.60;0.10;;;17.70;99.90;;;;;;4973972;28;20449;-73
2023/10/03 16:52:25;;;;;;;0.60;0.10;;;17.70;99.90;;;;;;4971972;28;20505;-73
2023/10/03 16:54:53;;;;;;;0.60;0.10;;;17.70;99.90;;;;;;4968197;28;20563;-74
2023/10/03 16:57:21;;;;;;;0.60;0.10;;;17.70;99.90;;;;;;4979978;28;20500;-73
2023/10/03 16:59:50;;;;;;;0.60;0.20;;;17.70;99.90;;;;;;4975807;28;20999;-73
2023/10/03 17:02:18;;;;;;;0.60;0.30;;;17.60;99.90;;;;;;4971438;28;20449;-72
2023/10/03 17:04:46;;;;;;;0.60;0.10;;;17.60;99.90;;;;;;4972012;28;20465;-73
2023/10/03 17:07:14;;;;;;;1.23;0.63;;;17.60;99.90;;;;;;4959108;28;20888;-74
2023/10/03 17:09:44;;;;;;;0.70;0.47;;;17.50;99.90;;;;;;4971395;28;20972;-75
2023/10/03 17:12:12;;;;;;;0.70;0.30;;;17.40;99.90;;;;;;4971483;28;20449;-73